North Cornwall, Pennsylvania
Current Conditions -  °F | °C
As of 10:58 AM on Sunday 23 Nov 2014 (Local Time) from KMUI Reporting Station
Few Clouds Few Clouds  
Wind Chill: 47°   Ceiling: Unl
Heat Index: 47°   Visibility: 10mi
Dew Point: 22°   Wind: 1mph
Humidity: 37%   Direction: NA
Pressure: 30.17"   Gusts: NA
Location:  40.2957°N, 76.4189°W
Report Text: KMUI 231558Z AUTO VRB01KT 10SM FEW100 08/M06 A3017 RMK AO2 SLP223 T00811057 $
Loading
Personal Weather Stations






























Interactive Weather Map New forecast layout! Learn more

10-Day Weather Forecast

Advertisements
Track Severe Weather on mobile